createdAt,value
2019-01-10T00:01:42.461Z,7.00
2019-01-10T00:05:59.236Z,3.50
2019-01-10T00:10:16.303Z,3.43
2019-01-10T00:14:32.906Z,3.43
2019-01-10T00:18:49.432Z,4.50
2019-01-10T00:23:05.954Z,3.07
2019-01-10T00:27:22.553Z,4.77
2019-01-10T00:31:38.980Z,3.67
2019-01-10T00:35:55.500Z,7.63
2019-01-10T00:40:14.280Z,4.20
2019-01-10T00:44:31.057Z,6.67
2019-01-10T00:48:48.133Z,6.10
2019-01-10T00:53:04.881Z,8.67
2019-01-10T00:57:21.709Z,5.07
2019-01-10T01:01:38.264Z,4.57
2019-01-10T01:05:55.048Z,4.97
2019-01-10T01:10:20.614Z,5.93
2019-01-10T01:14:37.292Z,7.40
2019-01-10T01:18:54.105Z,7.63
2019-01-10T01:23:10.937Z,7.57
2019-01-10T01:27:27.456Z,9.43
2019-01-10T01:31:43.972Z,3.83
2019-01-10T01:36:00.649Z,4.70
2019-01-10T01:40:18.620Z,3.77
2019-01-10T01:44:35.069Z,5.70
2019-01-10T01:48:51.565Z,5.57
2019-01-10T01:53:08.092Z,5.10
2019-01-10T01:57:24.865Z,7.47
2019-01-10T02:01:41.726Z,8.60
2019-01-10T02:05:58.241Z,7.33
2019-01-10T02:10:17.870Z,7.63
2019-01-10T02:14:34.325Z,3.13
2019-01-10T02:18:51.133Z,6.90
2019-01-10T02:23:07.678Z,4.90
2019-01-10T02:27:24.794Z,3.27
2019-01-10T02:31:41.304Z,4.20
2019-01-10T02:35:57.903Z,3.60
2019-01-10T02:40:14.366Z,3.20
2019-01-10T02:44:30.832Z,2.80
2019-01-10T02:48:47.276Z,4.40
2019-01-10T02:53:04.116Z,4.27
2019-01-10T02:57:20.980Z,4.97
2019-01-10T03:01:37.763Z,7.00
2019-01-10T03:05:54.362Z,4.80
2019-01-10T03:10:16.729Z,6.63
2019-01-10T03:14:33.200Z,8.00
2019-01-10T03:18:49.703Z,9.70
2019-01-10T03:23:06.237Z,6.80
2019-01-10T03:27:22.758Z,6.30
2019-01-10T03:31:39.241Z,4.73
2019-01-10T03:35:55.773Z,6.43
2019-01-10T03:40:15.250Z,4.50
2019-01-10T03:44:34.491Z,3.93
2019-01-10T03:48:50.083Z,4.33
2019-01-10T03:53:06.737Z,2.87
2019-01-10T03:57:23.231Z,7.67
2019-01-10T04:01:40.040Z,7.17
2019-01-10T04:05:56.577Z,6.53
2019-01-10T04:10:14.484Z,6.53
2019-01-10T04:14:31.378Z,5.50
2019-01-10T04:18:47.958Z,3.10
2019-01-10T04:23:04.496Z,4.17
2019-01-10T04:27:20.985Z,2.50
2019-01-10T04:31:37.488Z,6.87
2019-01-10T04:35:54.278Z,3.97
2019-01-10T04:40:15.987Z,2.53
2019-01-10T04:44:32.569Z,4.13
2019-01-10T04:48:48.985Z,5.20
2019-01-10T04:53:05.584Z,3.53
2019-01-10T04:57:22.070Z,3.37
2019-01-10T05:01:38.644Z,4.37
2019-01-10T05:05:55.762Z,3.10
2019-01-10T05:10:12.357Z,2.70
2019-01-10T05:14:28.779Z,5.27
2019-01-10T05:18:45.293Z,3.53
2019-01-10T05:23:01.825Z,5.57
2019-01-10T05:27:18.878Z,5.10
2019-01-10T05:31:35.467Z,4.90
2019-01-10T05:35:51.942Z,4.13
2019-01-10T05:40:10.302Z,3.93
2019-01-10T05:44:27.120Z,7.07
2019-01-10T05:48:47.221Z,3.33
2019-01-10T05:53:01.699Z,5.03
2019-01-10T05:57:18.234Z,6.47
2019-01-10T06:01:34.760Z,6.53
2019-01-10T06:05:52.119Z,5.00
2019-01-10T06:10:15.264Z,9.13
2019-01-10T06:14:35.717Z,7.00
2019-01-10T06:18:50.328Z,9.00
2019-01-10T06:23:06.770Z,12.43
2019-01-10T06:27:23.182Z,7.70
2019-01-10T06:31:39.606Z,5.27
2019-01-10T06:35:56.001Z,8.40
2019-01-10T06:40:15.128Z,5.20
2019-01-10T06:44:31.540Z,6.63
2019-01-10T06:48:47.949Z,4.57
2019-01-10T06:53:04.330Z,6.17
2019-01-10T06:57:21.037Z,6.07
2019-01-10T07:01:37.449Z,8.77
2019-01-10T07:05:53.846Z,5.83
2019-01-10T07:10:24.190Z,8.37
2019-01-10T07:14:40.614Z,9.53
2019-01-10T07:18:57.418Z,11.53
2019-01-10T07:23:13.862Z,5.77
2019-01-10T07:27:30.247Z,6.33
2019-01-10T07:31:46.650Z,4.83
2019-01-10T07:36:03.114Z,6.10
2019-01-10T07:40:19.544Z,3.30
2019-01-10T07:44:35.957Z,5.97
2019-01-10T07:48:52.334Z,4.60
2019-01-10T07:53:08.730Z,5.57
2019-01-10T07:57:25.164Z,10.07
2019-01-10T08:01:41.565Z,4.83
2019-01-10T08:05:58.050Z,5.53
2019-01-10T08:10:15.417Z,5.57
2019-01-10T08:14:31.873Z,5.90
2019-01-10T08:18:48.209Z,8.73
2019-01-10T08:23:04.608Z,4.53
2019-01-10T08:27:21.321Z,8.53
2019-01-10T08:31:37.702Z,6.37
2019-01-10T08:35:54.114Z,5.87
2019-01-10T08:40:10.525Z,11.37
2019-01-10T08:44:27.191Z,5.40
2019-01-10T08:48:43.585Z,5.57
2019-01-10T08:53:00.230Z,7.50
2019-01-10T08:57:16.669Z,4.00
2019-01-10T09:01:33.053Z,3.33
2019-01-10T09:05:49.472Z,1.70
2019-01-10T09:10:12.482Z,2.60
2019-01-10T09:14:29.177Z,2.47
2019-01-10T09:18:45.833Z,2.80
2019-01-10T09:23:02.564Z,4.03
2019-01-10T09:27:18.910Z,3.83
2019-01-10T09:31:35.705Z,4.83
2019-01-10T09:35:52.078Z,2.73
2019-01-10T09:40:13.749Z,3.93
2019-01-10T09:44:30.159Z,2.63
2019-01-10T09:48:46.845Z,2.63
2019-01-10T09:53:03.230Z,3.50
2019-01-10T09:57:19.957Z,3.83
2019-01-10T10:01:36.305Z,2.70
2019-01-10T10:05:52.974Z,2.50
2019-01-10T10:10:12.445Z,3.00
2019-01-10T10:14:28.858Z,2.77
2019-01-10T10:18:45.257Z,2.33
2019-01-10T10:23:01.914Z,2.53
2019-01-10T10:27:18.313Z,3.30
2019-01-10T10:31:34.973Z,2.77
2019-01-10T10:35:51.437Z,4.43
2019-01-10T10:40:15.769Z,3.50
2019-01-10T10:44:32.462Z,7.67
2019-01-10T10:48:48.853Z,4.97
2019-01-10T10:53:05.293Z,5.43
2019-01-10T10:57:21.887Z,2.97
2019-01-10T11:01:38.384Z,2.90
2019-01-10T11:05:54.779Z,5.37
2019-01-10T11:10:13.778Z,2.70
2019-01-10T11:14:30.460Z,2.93
2019-01-10T11:18:46.868Z,2.93
2019-01-10T11:23:10.503Z,3.23
2019-01-10T11:27:21.564Z,3.07
2019-01-10T11:31:38.024Z,3.53
2019-01-10T11:35:54.473Z,4.07
2019-01-10T11:40:15.751Z,6.70
2019-01-10T11:44:32.190Z,3.60
2019-01-10T11:48:48.625Z,3.07
2019-01-10T11:53:05.353Z,3.10
2019-01-10T11:57:22.088Z,3.07
2019-01-10T12:01:38.725Z,4.13
2019-01-10T12:05:55.406Z,2.90
2019-01-10T12:10:11.815Z,4.00
2019-01-10T12:14:28.220Z,5.40
2019-01-10T12:18:44.633Z,4.40
2019-01-10T12:23:01.286Z,5.03
2019-01-10T12:27:17.681Z,3.50
2019-01-10T12:31:34.098Z,7.00
2019-01-10T12:35:50.484Z,4.33
2019-01-10T12:40:09.643Z,4.53
2019-01-10T12:44:26.048Z,5.93
2019-01-10T12:48:42.770Z,4.53
2019-01-10T12:52:59.197Z,7.17
2019-01-10T12:57:15.566Z,4.53
2019-01-10T13:01:31.989Z,4.70
2019-01-10T13:05:48.391Z,5.40
2019-01-10T13:10:08.389Z,5.53
2019-01-10T13:14:24.806Z,5.97
2019-01-10T13:18:41.197Z,5.43
2019-01-10T13:22:57.599Z,4.80
2019-01-10T13:27:13.998Z,5.63
2019-01-10T13:31:30.438Z,5.87
2019-01-10T13:35:46.835Z,6.43
2019-01-10T13:40:08.038Z,5.90
2019-01-10T13:44:24.490Z,8.20
2019-01-10T13:48:41.316Z,5.57
2019-01-10T13:52:57.719Z,5.43
2019-01-10T13:57:14.151Z,5.33
2019-01-10T14:01:30.521Z,6.83
2019-01-10T14:05:46.949Z,5.40
2019-01-10T14:10:08.467Z,4.97
2019-01-10T14:14:24.908Z,7.47
2019-01-10T14:18:41.281Z,5.67
2019-01-10T14:22:57.677Z,6.27
2019-01-10T14:27:14.115Z,5.73
2019-01-10T14:31:30.519Z,6.50
2019-01-10T14:35:46.941Z,5.67
2019-01-10T14:40:05.615Z,5.30
2019-01-10T14:44:22.414Z,4.30
2019-01-10T14:48:38.898Z,9.07
2019-01-10T14:52:55.505Z,4.53
2019-01-10T14:57:12.319Z,4.37
2019-01-10T15:01:28.898Z,6.63
2019-01-10T15:05:45.333Z,5.67
2019-01-10T15:10:02.022Z,7.93
2019-01-10T15:14:18.671Z,6.90
2019-01-10T15:18:35.431Z,5.23
2019-01-10T15:22:51.789Z,4.37
2019-01-10T15:27:08.488Z,7.17
2019-01-10T15:31:24.997Z,8.93
2019-01-10T15:35:41.425Z,10.17
2019-01-10T15:39:57.815Z,7.43
2019-01-10T15:44:14.230Z,5.87
2019-01-10T15:48:30.666Z,4.93
2019-01-10T15:52:47.117Z,6.50
2019-01-10T15:57:03.527Z,6.43
2019-01-10T16:01:20.283Z,4.77
2019-01-10T16:05:36.870Z,3.67
2019-01-10T16:09:53.385Z,4.33
2019-01-10T16:14:09.894Z,2.87
2019-01-10T16:18:26.283Z,3.17
2019-01-10T16:22:42.716Z,3.60
2019-01-10T16:26:59.086Z,3.60
2019-01-10T16:31:15.790Z,4.23
2019-01-10T16:35:32.182Z,3.87
2019-01-10T16:39:48.590Z,4.03
2019-01-10T16:44:05.010Z,4.00
2019-01-10T16:48:21.717Z,5.63
2019-01-10T16:52:38.107Z,3.70
2019-01-10T16:56:54.550Z,4.67
2019-01-10T17:01:11.254Z,6.20
2019-01-10T17:05:28.038Z,4.27
2019-01-10T17:09:44.588Z,3.40
2019-01-10T17:14:01.421Z,4.27
2019-01-10T17:18:17.819Z,4.63
2019-01-10T17:22:34.250Z,3.63
2019-01-10T17:26:50.814Z,3.10
2019-01-10T17:31:07.532Z,3.93
2019-01-10T17:35:26.154Z,2.70
2019-01-10T17:39:42.564Z,2.83
2019-01-10T17:43:59.013Z,4.90
2019-01-10T17:48:15.466Z,3.93
2019-01-10T17:52:31.855Z,2.27
2019-01-10T17:56:48.570Z,2.40
2019-01-10T18:01:05.060Z,2.33
2019-01-10T18:05:21.731Z,3.57
2019-01-10T18:09:38.126Z,3.47
2019-01-10T18:13:54.548Z,2.30
2019-01-10T18:18:10.961Z,3.57
2019-01-10T18:22:27.635Z,4.90
2019-01-10T18:26:44.060Z,4.33
2019-01-10T18:31:01.013Z,5.95
2019-01-10T18:35:17.732Z,4.77
2019-01-10T18:39:34.413Z,6.00
2019-01-10T18:43:50.938Z,6.63
2019-01-10T18:48:07.440Z,6.87
2019-01-10T18:52:23.977Z,5.13
2019-01-10T18:56:40.802Z,7.53
2019-01-10T19:00:57.323Z,10.47
2019-01-10T19:05:13.896Z,13.10
2019-01-10T19:09:30.354Z,5.63
2019-01-10T19:13:51.120Z,7.70
2019-01-10T19:18:07.708Z,7.43
2019-01-10T19:22:24.114Z,11.00
2019-01-10T19:26:40.808Z,7.07
2019-01-10T19:30:57.256Z,7.27
2019-01-10T19:35:15.568Z,6.27
2019-01-10T19:39:32.012Z,6.57
2019-01-10T19:43:50.463Z,6.67
2019-01-10T19:48:09.736Z,5.70
2019-01-10T19:52:25.430Z,7.47
2019-01-10T19:56:42.643Z,9.13
2019-01-10T20:00:59.326Z,7.33
2019-01-10T20:05:15.877Z,6.43
2019-01-10T20:09:34.179Z,9.67
2019-01-10T20:13:52.527Z,8.37
2019-01-10T20:18:08.983Z,9.37
2019-01-10T20:22:25.401Z,11.53
2019-01-10T20:26:41.821Z,11.77
2019-01-10T20:30:58.521Z,10.13
2019-01-10T20:35:15.441Z,8.87
2019-01-10T20:39:32.935Z,11.20
2019-01-10T20:43:49.566Z,9.57
2019-01-10T20:48:07.246Z,11.23
2019-01-10T20:52:24.080Z,10.97
2019-01-10T20:56:40.531Z,8.90
2019-01-10T21:00:59.131Z,6.83
2019-01-10T21:05:15.561Z,7.80
2019-01-10T21:09:32.024Z,7.43
2019-01-10T21:13:48.415Z,9.60
2019-01-10T21:18:04.939Z,11.83
2019-01-10T21:22:21.340Z,12.20
2019-01-10T21:26:37.771Z,12.90
2019-01-10T21:30:54.162Z,8.60
2019-01-10T21:35:10.881Z,10.63
2019-01-10T21:39:27.365Z,6.93
2019-01-10T21:43:43.754Z,10.00
2019-01-10T21:48:00.154Z,13.30
2019-01-10T21:52:16.823Z,12.10
2019-01-10T21:56:33.259Z,10.53
2019-01-10T22:00:49.634Z,11.37
2019-01-10T22:05:06.394Z,19.27
2019-01-10T22:09:22.834Z,15.13
2019-01-10T22:13:39.217Z,14.07
2019-01-10T22:17:55.727Z,13.57
2019-01-10T22:22:12.120Z,13.87
2019-01-10T22:26:28.785Z,14.03
2019-01-10T22:30:45.212Z,9.10
2019-01-10T22:35:02.008Z,11.50
2019-01-10T22:39:18.421Z,12.90
2019-01-10T22:43:34.934Z,9.47
2019-01-10T22:47:51.337Z,14.43
2019-01-10T22:52:07.766Z,12.17
2019-01-10T22:56:24.178Z,18.17
2019-01-10T23:01:00.405Z,11.47
2019-01-10T23:05:16.787Z,12.60
2019-01-10T23:09:33.244Z,11.67
2019-01-10T23:13:52.254Z,10.73
2019-01-10T23:18:08.929Z,8.37
2019-01-10T23:22:25.321Z,10.03
2019-01-10T23:26:46.457Z,11.77
2019-01-10T23:31:02.937Z,10.57
2019-01-10T23:35:21.967Z,16.03
2019-01-10T23:39:38.347Z,8.77
2019-01-10T23:43:55.052Z,11.23
2019-01-10T23:48:11.662Z,9.83
2019-01-10T23:52:29.077Z,13.47
2019-01-10T23:56:45.502Z,9.57
